Time;durP1;ratioP1;P1;durP2;ratioP2;P2;SDS_P1;SDS_P2;PMS_P1;PMS_P2;Temp;Humidity;BMP_temperature;BMP_pressure;BME280_temperature;BME280_humidity;BME280_pressure;Samples;Min_cycle;Max_cycle;Signal;HPM_P1;HPM_P2
2022/08/14 00:01:09;;;;;;;;;;;;;;;26.39;43.54;98802.72;5033465;28;19917;-77
2022/08/14 00:03:34;;;;;;;;;;;;;;;26.37;43.61;98799.53;5033312;28;19913;-77
2022/08/14 00:06:01;;;;;;;;;;;;;;;26.35;43.85;98800.91;5033395;28;19909;-77
2022/08/14 00:08:26;;;;;;;;;;;;;;;26.33;43.75;98801.22;5033280;28;20393;-77
2022/08/14 00:10:52;;;;;;;;;;;;;;;26.34;44.13;98799.31;5033175;28;19909;-77
2022/08/14 00:13:18;;;;;;;;;;;;;;;26.33;43.33;98795.81;5033356;28;20388;-77
2022/08/14 00:15:45;;;;;;;;;;;;;;;26.33;43.29;98793.09;5033164;28;19958;-77
2022/08/14 00:18:12;;;;;;;;;;;;;;;26.36;43.16;98797.13;5033119;28;19925;-77
2022/08/14 00:20:40;;;;;;;;;;;;;;;26.39;42.60;98791.09;5033187;28;19913;-77
2022/08/14 00:23:06;;;;;;;;;;;;;;;26.38;43.30;98797.63;5032912;28;20382;-77
2022/08/14 00:25:32;;;;;;;;;;;;;;;26.40;43.42;98793.50;5032908;28;20003;-77
2022/08/14 00:27:57;;;;;;;;;;;;;;;26.40;43.87;98792.69;5032991;28;19948;-77
2022/08/14 00:30:22;;;;;;;;;;;;;;;26.33;42.89;98792.31;5032932;28;19909;-77
2022/08/14 00:32:48;;;;;;;;;;;;;;;26.33;43.90;98795.81;5032971;28;19909;-77
2022/08/14 00:35:13;;;;;;;;;;;;;;;26.33;43.63;98793.09;5032316;28;19963;-77
2022/08/14 00:37:40;;;;;;;;;;;;;;;26.32;44.25;98790.66;5031342;28;19909;-77
2022/08/14 00:40:08;;;;;;;;;;;;;;;26.32;43.82;98796.06;5032477;28;19919;-77
2022/08/14 00:42:33;;;;;;;;;;;;;;;26.32;43.65;98791.47;5032710;28;19909;-77
2022/08/14 00:44:58;;;;;;;;;;;;;;;26.33;43.38;98795.81;5032720;28;20382;-77
2022/08/14 00:47:24;;;;;;;;;;;;;;;26.28;43.81;98790.47;5032714;28;19916;-77
2022/08/14 00:49:50;;;;;;;;;;;;;;;26.27;44.00;98786.94;5032616;28;19915;-77
2022/08/14 00:52:16;;;;;;;;;;;;;;;26.26;44.49;98792.66;5031353;28;20357;-77
2022/08/14 00:54:43;;;;;;;;;;;;;;;26.25;43.62;98777.53;5032558;28;19936;-77
2022/08/14 00:57:08;;;;;;;;;;;;;;;26.24;43.70;98778.63;5032471;28;19909;-77
2022/08/14 00:59:34;;;;;;;;;;;;;;;26.25;43.84;98772.91;5032361;28;19968;-77
2022/08/14 01:02:00;;;;;;;;;;;;;;;26.25;43.27;98774.81;5032847;28;19952;-77
2022/08/14 01:04:27;;;;;;;;;;;;;;;26.23;44.77;98760.78;5032421;28;19909;-77
2022/08/14 01:06:53;;;;;;;;;;;;;;;26.21;43.03;98763.00;5032291;28;19924;-77
2022/08/14 01:09:21;;;;;;;;;;;;;;;26.15;44.40;98756.88;5032146;28;19909;-77
2022/08/14 01:11:48;;;;;;;;;;;;;;;26.15;44.16;98762.28;5064142;28;19963;-77
2022/08/14 01:14:13;;;;;;;;;;;;;;;26.11;43.95;98760.47;5032226;28;19910;-77
2022/08/14 01:16:38;;;;;;;;;;;;;;;26.07;44.01;98757.56;5031977;28;20000;-77
2022/08/14 01:21:48;;;;;;;;;;;;;;;25.97;44.21;98753.13;5032103;28;19920;-77
2022/08/14 01:24:14;;;;;;;;;;;;;;;25.97;45.42;98763.13;5032120;28;19928;-77
2022/08/14 01:26:40;;;;;;;;;;;;;;;25.98;44.52;98753.91;5063996;28;19915;-77
2022/08/14 01:29:06;;;;;;;;;;;;;;;25.98;44.85;98753.91;5032049;28;19909;-77
2022/08/14 01:31:32;;;;;;;;;;;;;;;25.97;44.15;98752.31;5031951;28;20004;-77
2022/08/14 01:33:59;;;;;;;;;;;;;;;25.94;43.71;98751.00;5032072;28;19908;-77
2022/08/14 01:36:25;;;;;;;;;;;;;;;25.92;45.36;98747.00;5031984;28;19909;-77
2022/08/14 01:38:55;;;;;;;;;;;;;;;25.92;44.37;98736.97;5031980;28;19908;-77
2022/08/14 01:41:21;;;;;;;;;;;;;;;25.96;44.41;98740.69;5031835;28;19913;-77
2022/08/14 01:43:51;;;;;;;;;;;;;;;25.96;44.92;98735.28;5031780;28;19967;-77
2022/08/14 01:46:17;;;;;;;;;;;;;;;25.98;44.81;98741.19;5031880;28;20378;-77
2022/08/14 01:48:43;;;;;;;;;;;;;;;25.98;44.88;98738.50;5031372;28;19913;-77
2022/08/14 01:51:12;;;;;;;;;;;;;;;26.02;44.44;98736.00;5063835;28;19913;-77
2022/08/14 01:53:41;;;;;;;;;;;;;;;26.07;44.72;98735.13;5031917;28;19909;-77
2022/08/14 01:56:07;;;;;;;;;;;;;;;26.07;44.99;98727.81;5063640;28;19996;-77
2022/08/14 01:58:32;;;;;;;;;;;;;;;26.09;44.27;98724.81;5031743;28;19976;-77
2022/08/14 02:00:58;;;;;;;;;;;;;;;26.06;44.70;98720.78;5031539;28;20318;-77
2022/08/14 02:03:25;;;;;;;;;;;;;;;26.04;44.49;98727.59;5063667;28;20302;-77
2022/08/14 02:05:50;;;;;;;;;;;;;;;26.04;43.87;98730.31;5031743;28;19909;-77
2022/08/14 02:08:16;;;;;;;;;;;;;;;26.00;44.81;98716.53;5031549;28;19915;-77
2022/08/14 02:10:42;;;;;;;;;;;;;;;25.98;45.06;98724.16;5031686;28;19916;-77
2022/08/14 02:13:09;;;;;;;;;;;;;;;25.97;44.32;98711.75;5031524;28;20391;-77
2022/08/14 02:15:35;;;;;;;;;;;;;;;25.93;45.41;98721.56;5031557;28;19909;-77
2022/08/14 02:18:00;;;;;;;;;;;;;;;25.89;44.90;98715.13;5031514;28;19917;-77
2022/08/14 02:20:32;;;;;;;;;;;;;;;25.88;45.05;98711.63;5063371;28;19913;-77
2022/08/14 02:22:57;;;;;;;;;;;;;;;25.88;45.22;98711.63;5031437;28;19968;-77
2022/08/14 02:25:23;;;;;;;;;;;;;;;25.86;45.97;98705.72;5031419;28;20310;-77
2022/08/14 02:27:48;;;;;;;;;;;;;;;25.85;45.56;98706.81;5031423;28;19916;-77
2022/08/14 02:30:14;;;;;;;;;;;;;;;25.82;45.29;98712.81;5031206;28;20394;-77
2022/08/14 02:32:39;;;;;;;;;;;;;;;25.80;44.68;98708.81;5031482;28;19909;-77
2022/08/14 02:35:17;;;;;;;;;;;;;;;25.77;45.54;98706.69;5031535;28;19909;-77
2022/08/14 02:37:42;;;;;;;;;;;;;;;25.73;45.59;98703.78;5031488;28;19924;-77
2022/08/14 02:40:08;;;;;;;;;;;;;;;25.78;45.18;98702.91;5031354;28;19913;-77
2022/08/14 02:42:33;;;;;;;;;;;;;;;25.74;44.65;98704.59;5030001;28;19940;-77
2022/08/14 02:44:58;;;;;;;;;;;;;;;25.71;45.45;98702.47;5031176;28;19916;-77
2022/08/14 02:47:25;;;;;;;;;;;;;;;25.62;46.13;98700.44;5031283;28;19909;-77
2022/08/14 02:49:50;;;;;;;;;;;;;;;25.61;45.18;98700.72;5031217;28;19908;-77
2022/08/14 02:52:16;;;;;;;;;;;;;;;25.65;44.84;98699.03;5031502;28;19991;-77
2022/08/14 02:54:41;;;;;;;;;;;;;;;25.72;45.71;98702.19;5031130;28;20007;-77
2022/08/14 02:57:06;;;;;;;;;;;;;;;25.71;45.51;98702.47;5029932;28;19908;-77
2022/08/14 02:59:33;;;;;;;;;;;;;;;25.67;45.05;98696.88;5033415;28;20360;-77
2022/08/14 03:01:58;;;;;;;;;;;;;;;25.67;44.71;98696.06;5033316;28;19913;-77
2022/08/14 03:04:27;;;;;;;;;;;;;;;25.64;45.53;98700.13;5034488;28;19932;-77
2022/08/14 03:06:52;;;;;;;;;;;;;;;25.63;45.01;98698.53;5034542;28;19909;-77
2022/08/14 03:09:18;;;;;;;;;;;;;;;25.62;45.42;98699.63;5034521;28;19909;-77
2022/08/14 03:11:43;;;;;;;;;;;;;;;25.65;44.57;98699.03;5034429;28;19916;-77
2022/08/14 03:14:10;;;;;;;;;;;;;;;25.59;45.76;98698.31;5034422;28;19988;-77
2022/08/14 03:16:37;;;;;;;;;;;;;;;25.59;45.11;98702.94;5034184;28;19908;-77
2022/08/14 03:19:05;;;;;;;;;;;;;;;25.59;44.42;98708.34;5034349;28;19909;-77
2022/08/14 03:21:31;;;;;;;;;;;;;;;25.55;45.42;98712.72;5034162;28;19920;-77
2022/08/14 03:24:10;;;;;;;;;;;;;;;25.50;46.44;98720.91;5034225;28;20306;-77
2022/08/14 03:26:38;;;;;;;;;;;;;;;25.43;44.93;98721.31;5034180;28;20329;-77
2022/08/14 03:29:04;;;;;;;;;;;;;;;25.44;44.85;98724.81;5034085;28;19909;-77
2022/08/14 03:31:29;;;;;;;;;;;;;;;25.42;45.91;98729.72;5034054;28;19940;-77
2022/08/14 03:33:55;;;;;;;;;;;;;;;25.35;45.17;98727.38;5032745;28;19909;-77
2022/08/14 03:36:21;;;;;;;;;;;;;;;25.31;46.05;98734.47;5034419;28;19912;-77
2022/08/14 03:38:49;;;;;;;;;;;;;;;25.28;46.24;98732.34;5065954;28;19913;-77
2022/08/14 03:41:18;;;;;;;;;;;;;;;25.27;45.70;98739.66;5033903;28;20358;-77
2022/08/14 03:43:49;;;;;;;;;;;;;;;25.28;45.43;98740.47;5033921;28;19963;-77
2022/08/14 03:46:14;;;;;;;;;;;;;;;25.29;45.35;98737.47;5034111;28;19936;-77
2022/08/14 03:48:40;;;;;;;;;;;;;;;25.30;46.17;98733.66;5033926;28;19909;-77
2022/08/14 03:51:07;;;;;;;;;;;;;;;25.29;45.70;98731.25;5033861;28;19939;-77
2022/08/14 03:53:40;;;;;;;;;;;;;;;25.31;45.18;98726.38;5033632;28;19909;-77
2022/08/14 03:56:08;;;;;;;;;;;;;;;25.25;44.95;98725.59;5033550;28;19909;-77
2022/08/14 03:58:36;;;;;;;;;;;;;;;25.23;45.24;98713.50;5033525;28;19992;-77
2022/08/14 04:01:02;;;;;;;;;;;;;;;25.20;45.44;98708.69;5033412;28;19917;-77
2022/08/14 04:03:27;;;;;;;;;;;;;;;25.19;44.89;98707.06;5033673;28;19920;-77
2022/08/14 04:05:52;;;;;;;;;;;;;;;25.16;44.74;98708.47;5065794;28;19932;-77
2022/08/14 04:08:19;;;;;;;;;;;;;;;25.12;44.95;98709.34;5033479;28;19916;-77
2022/08/14 04:10:45;;;;;;;;;;;;;;;25.06;45.06;98700.50;5032623;28;19915;-77
2022/08/14 04:13:11;;;;;;;;;;;;;;;25.05;45.23;98700.81;5033478;28;19963;-77
2022/08/14 04:15:36;;;;;;;;;;;;;;;25.07;45.69;98695.91;5033505;28;19917;-77
2022/08/14 04:18:05;;;;;;;;;;;;;;;25.02;45.60;98694.91;5033082;28;19951;-77
2022/08/14 04:20:30;;;;;;;;;;;;;;;25.03;45.92;98695.69;5065090;28;19913;-77
2022/08/14 04:22:56;;;;;;;;;;;;;;;25.02;45.57;98700.28;5033235;28;19912;-77
2022/08/14 04:25:21;;;;;;;;;;;;;;;25.05;45.73;98692.69;5033159;28;19959;-77
2022/08/14 04:27:46;;;;;;;;;;;;;;;25.12;45.29;98693.13;5032981;28;19909;-77
2022/08/14 04:30:12;;;;;;;;;;;;;;;25.16;46.05;98689.53;5064956;28;19916;-77
2022/08/14 04:32:37;;;;;;;;;;;;;;;25.16;45.78;98689.53;5033115;28;20320;-77
2022/08/14 04:35:02;;;;;;;;;;;;;;;25.21;46.21;98699.47;5064809;28;19962;-77
2022/08/14 04:45:40;;;;;;;;;;;;;;;25.22;45.73;98691.06;5032788;28;19916;-77
2022/08/14 04:48:12;;;;;;;;;;;;;;;25.34;44.85;98691.44;5032929;28;19909;-77
2022/08/14 04:50:39;;;;;;;;;;;;;;;25.39;45.74;98682.44;5064699;28;19967;-77
2022/08/14 04:53:04;;;;;;;;;;;;;;;25.47;45.54;98689.09;5032916;28;19909;-77
2022/08/14 04:55:29;;;;;;;;;;;;;;;25.46;46.00;98684.78;5064423;28;20366;-77
2022/08/14 04:57:55;;;;;;;;;;;;;;;25.50;46.42;98685.78;5032552;28;20360;-77
2022/08/14 05:00:21;;;;;;;;;;;;;;;25.58;46.34;98685.91;5064245;28;19913;-77
2022/08/14 05:02:47;;;;;;;;;;;;;;;25.64;45.02;98687.41;5031190;28;19909;-77
2022/08/14 05:05:12;;;;;;;;;;;;;;;25.60;45.79;98685.59;5032454;28;19931;-77
2022/08/14 05:07:38;;;;;;;;;;;;;;;25.63;47.41;98685.00;5032210;28;19942;-77
2022/08/14 05:10:04;;;;;;;;;;;;;;;25.66;45.90;98692.56;5032059;28;19909;-77
2022/08/14 05:12:30;;;;;;;;;;;;;;;25.66;46.08;98692.56;5032011;28;19909;-77
2022/08/14 05:14:55;;;;;;;;;;;;;;;25.70;46.11;98688.16;5032038;28;19909;-77
2022/08/14 05:17:24;;;;;;;;;;;;;;;25.77;45.34;98698.59;5032039;28;19924;-77
2022/08/14 05:19:50;;;;;;;;;;;;;;;25.80;45.75;98692.59;5064164;28;19909;-77
2022/08/14 05:22:15;;;;;;;;;;;;;;;25.78;46.61;98701.00;5032140;28;19909;-77
2022/08/14 05:24:40;;;;;;;;;;;;;;;25.79;46.20;98702.59;5032030;28;20393;-77
2022/08/14 05:27:05;;;;;;;;;;;;;;;25.81;47.04;98703.09;5032269;28;19909;-77
2022/08/14 05:29:31;;;;;;;;;;;;;;;25.82;45.88;98709.31;5030848;28;19924;-77
2022/08/14 05:31:56;;;;;;;;;;;;;;;25.81;45.90;98705.00;5032295;28;19909;-77
2022/08/14 05:34:22;;;;;;;;;;;;;;;25.80;45.08;98714.22;5064020;28;19913;-77
2022/08/14 05:36:48;;;;;;;;;;;;;;;25.79;46.30;98713.41;5032027;28;19913;-77
2022/08/14 05:39:13;;;;;;;;;;;;;;;25.79;46.41;98712.63;5031988;28;19916;-77
2022/08/14 05:41:38;;;;;;;;;;;;;;;25.84;46.23;98712.53;5031858;28;19913;-77
2022/08/14 05:44:04;;;;;;;;;;;;;;;25.89;45.89;98707.81;5031922;28;20342;-77
2022/08/14 05:46:30;;;;;;;;;;;;;;;25.92;46.63;98715.34;5031905;28;19979;-77
2022/08/14 05:48:56;;;;;;;;;;;;;;;25.92;46.73;98699.09;5031543;28;20356;-77
2022/08/14 05:51:22;;;;;;;;;;;;;;;25.94;46.60;98707.72;5031565;28;19952;-77
2022/08/14 05:53:48;;;;;;;;;;;;;;;25.90;45.64;98697.81;5063839;28;19951;-77
2022/08/14 05:56:13;;;;;;;;;;;;;;;25.94;46.46;98699.63;5031819;28;19909;-77
2022/08/14 05:58:39;;;;;;;;;;;;;;;25.96;45.76;98697.41;5031776;28;19909;-77
2022/08/14 06:01:04;;;;;;;;;;;;;;;25.99;45.66;98698.72;5031432;28;20005;-77
2022/08/14 06:03:29;;;;;;;;;;;;;;;25.93;47.01;98703.41;5031623;28;19909;-77
2022/08/14 06:05:55;;;;;;;;;;;;;;;25.93;46.39;98706.13;5031623;28;19909;-77
2022/08/14 06:08:24;;;;;;;;;;;;;;;25.97;45.71;98707.13;5063446;28;20302;-77
2022/08/14 06:10:50;;;;;;;;;;;;;;;26.03;45.33;98707.88;5031464;28;19909;-77
2022/08/14 06:13:17;;;;;;;;;;;;;;;26.08;45.42;98701.56;5031432;28;19916;-77
2022/08/14 06:15:42;;;;;;;;;;;;;;;26.12;45.20;98703.34;5063364;28;19916;-77
2022/08/14 06:18:08;;;;;;;;;;;;;;;26.10;45.70;98705.56;5030185;28;19995;-77
2022/08/14 06:20:33;;;;;;;;;;;;;;;26.03;46.02;98696.25;5063517;28;20302;-77
2022/08/14 06:22:59;;;;;;;;;;;;;;;25.95;46.02;98695.00;5031423;28;19909;-77
2022/08/14 06:25:25;;;;;;;;;;;;;;;25.96;45.80;98700.13;5031201;28;19939;-77
2022/08/14 06:27:50;;;;;;;;;;;;;;;26.00;45.90;98700.31;5031456;28;20390;-77
2022/08/14 06:30:17;;;;;;;;;;;;;;;25.99;45.50;98701.41;5031458;28;19909;-77
2022/08/14 06:32:43;;;;;;;;;;;;;;;26.01;45.66;98701.13;5031396;28;19909;-77
2022/08/14 06:35:09;;;;;;;;;;;;;;;26.06;45.23;98699.16;5034699;28;20348;-77
2022/08/14 06:37:42;;;;;;;;;;;;;;;26.07;45.09;98702.66;5035179;28;19908;-77
2022/08/14 06:40:08;;;;;;;;;;;;;;;26.13;45.44;98696.84;5034957;28;20360;-77
2022/08/14 06:42:33;;;;;;;;;;;;;;;26.25;45.39;98699.06;5035017;28;19944;-77
2022/08/14 06:45:00;;;;;;;;;;;;;;;26.36;45.01;98694.25;5033815;28;19917;-77
2022/08/14 06:47:25;;;;;;;;;;;;;;;26.45;45.25;98695.97;5035029;28;20395;-77
2022/08/14 06:49:50;;;;;;;;;;;;;;;26.51;44.51;98697.44;5034778;28;19955;-77
2022/08/14 06:52:16;;;;;;;;;;;;;;;26.56;44.33;98704.66;5033499;28;19916;-77
2022/08/14 06:54:41;;;;;;;;;;;;;;;26.53;44.90;98691.75;5034664;28;19919;-77
2022/08/14 06:57:07;;;;;;;;;;;;;;;26.55;45.42;98697.66;5034683;28;19913;-77
2022/08/14 06:59:32;;;;;;;;;;;;;;;26.64;44.71;98695.03;5034769;28;19909;-77
2022/08/14 07:07:33;;;;;;;;;;;;;;;26.82;44.32;98685.97;5034633;28;19916;-77
2022/08/14 07:09:59;;;;;;;;;;;;;;;26.90;44.15;98687.97;5034513;28;19916;-77
2022/08/14 07:12:24;;;;;;;;;;;;;;;26.98;43.56;98697.31;5034327;28;19909;-77
2022/08/14 07:14:49;;;;;;;;;;;;;;;27.09;43.92;98693.25;5034289;28;20379;-77
2022/08/14 07:17:15;;;;;;;;;;;;;;;27.19;44.19;98696.53;5034098;28;19917;-77
2022/08/14 07:19:40;;;;;;;;;;;;;;;27.27;43.08;98686.84;5034185;28;19959;-77
2022/08/14 07:22:05;;;;;;;;;;;;;;;27.36;42.75;98676.84;5034201;28;19924;-77
2022/08/14 07:24:30;;;;;;;;;;;;;;;27.47;42.32;98671.97;5034512;28;20012;-77
2022/08/14 07:26:56;;;;;;;;;;;;;;;27.50;42.08;98679.53;5034131;28;20309;-77
2022/08/14 07:29:21;;;;;;;;;;;;;;;27.66;41.94;98680.75;5034055;28;19913;-77
2022/08/14 07:31:46;;;;;;;;;;;;;;;27.77;41.76;98676.66;5034174;28;20301;-77
2022/08/14 07:34:12;;;;;;;;;;;;;;;27.85;41.29;98667.78;5034050;28;20010;-77
2022/08/14 07:36:37;;;;;;;;;;;;;;;27.90;41.15;98660.59;5033965;28;20416;-77
2022/08/14 07:39:03;;;;;;;;;;;;;;;27.95;40.95;98663.19;5033889;28;19909;-77
2022/08/14 07:41:29;;;;;;;;;;;;;;;27.97;41.27;98667.19;5033849;28;20353;-77
2022/08/14 07:43:54;;;;;;;;;;;;;;;28.01;41.21;98662.72;5034096;28;19909;-77
2022/08/14 07:46:19;;;;;;;;;;;;;;;28.09;41.06;98658.44;5032632;28;19909;-77
2022/08/14 07:48:47;;;;;;;;;;;;;;;28.18;40.96;98665.50;5033835;28;20021;-77
2022/08/14 07:51:12;;;;;;;;;;;;;;;28.25;40.91;98662.38;5033783;28;19936;-77
2022/08/14 07:53:38;;;;;;;;;;;;;;;28.31;40.36;98666.53;5033657;28;20378;-77
2022/08/14 07:56:03;;;;;;;;;;;;;;;28.39;40.60;98663.06;5032428;28;19948;-76
2022/08/14 07:58:28;;;;;;;;;;;;;;;28.44;39.96;98659.38;5033923;28;19915;-77
2022/08/14 08:00:54;;;;;;;;;;;;;;;28.44;39.96;98662.09;5033408;28;19913;-77
2022/08/14 08:03:21;;;;;;;;;;;;;;;28.55;39.63;98654.44;5033613;28;19947;-77
2022/08/14 08:05:47;;;;;;;;;;;;;;;28.67;39.83;98666.28;5032163;28;19913;-77
2022/08/14 08:08:15;;;;;;;;;;;;;;;28.77;39.83;98659.75;5033480;28;19958;-77
2022/08/14 08:10:41;;;;;;;;;;;;;;;28.76;39.80;98660.84;5033277;28;20004;-77
2022/08/14 08:13:06;;;;;;;;;;;;;;;28.67;39.92;98658.13;5033307;28;19992;-77
2022/08/14 08:15:42;;;;;;;;;;;;;;;28.75;40.17;98654.63;5033144;28;20297;-77
2022/08/14 08:18:08;;;;;;;;;;;;;;;28.90;39.96;98655.28;5033129;28;19917;-77
2022/08/14 08:20:36;;;;;;;;;;;;;;;28.97;39.88;98652.91;5033045;28;19913;-77
2022/08/14 08:23:02;;;;;;;;;;;;;;;28.97;39.99;98652.91;5032985;28;20096;-77
2022/08/14 08:25:31;;;;;;;;;;;;;;;28.93;39.74;98655.44;5065013;28;19951;-77
2022/08/14 08:27:57;;;;;;;;;;;;;;;28.98;40.04;98655.28;5032996;28;20011;-77
2022/08/14 08:30:22;;;;;;;;;;;;;;;28.99;39.97;98661.56;5032754;28;19940;-77
2022/08/14 08:32:50;;;;;;;;;;;;;;;28.94;40.17;98654.34;5032738;28;19916;-77
2022/08/14 08:35:17;;;;;;;;;;;;;;;28.92;39.82;98650.34;5031320;28;19915;-77
2022/08/14 08:37:42;;;;;;;;;;;;;;;28.93;40.12;98646.50;5032809;28;19908;-77
2022/08/14 08:40:08;;;;;;;;;;;;;;;29.00;40.17;98646.84;5064892;28;19917;-77
2022/08/14 08:42:33;;;;;;;;;;;;;;;29.08;39.92;98641.41;5032708;28;20388;-77
2022/08/14 08:44:58;;;;;;;;;;;;;;;29.27;39.71;98638.34;5032584;28;19916;-77
2022/08/14 08:47:24;;;;;;;;;;;;;;;29.48;39.53;98638.47;5032452;28;19913;-77
2022/08/14 08:49:51;;;;;;;;;;;;;;;29.55;39.19;98638.78;5032598;28;19908;-77
2022/08/14 08:52:16;;;;;;;;;;;;;;;29.55;39.07;98637.97;5032531;28;19909;-77
2022/08/14 08:54:52;;;;;;;;;;;;;;;29.57;39.39;98631.09;5032428;28;19913;-77
2022/08/14 08:57:17;;;;;;;;;;;;;;;29.53;39.46;98632.84;5032062;28;19916;-77
2022/08/14 08:59:42;;;;;;;;;;;;;;;29.49;39.13;98626.47;5032340;28;19909;-77
2022/08/14 09:02:08;;;;;;;;;;;;;;;29.44;39.43;98626.66;5032416;28;19912;-77
2022/08/14 09:04:46;;;;;;;;;;;;;;;29.54;39.93;98631.72;5032407;28;19924;-77
2022/08/14 09:07:13;;;;;;;;;;;;;;;29.69;39.47;98627.69;5064250;28;19909;-77
2022/08/14 09:09:50;;;;;;;;;;;;;;;29.67;39.30;98632.66;5032327;28;20325;-77
2022/08/14 09:12:15;;;;;;;;;;;;;;;29.56;39.62;98620.53;5032120;28;19963;-77
2022/08/14 09:14:41;;;;;;;;;;;;;;;29.53;39.44;98613.00;5032029;28;19909;-77
2022/08/14 09:17:06;;;;;;;;;;;;;;;29.54;39.61;98609.19;5031831;28;20007;-77
2022/08/14 09:19:32;;;;;;;;;;;;;;;29.65;38.89;98604.97;5032002;28;19944;-77
2022/08/14 09:21:57;;;;;;;;;;;;;;;29.89;39.34;98607.94;5032012;28;19920;-77
2022/08/14 09:24:23;;;;;;;;;;;;;;;30.18;38.36;98601.72;5031930;28;19908;-77
2022/08/14 09:26:48;;;;;;;;;;;;;;;30.50;37.92;98607.59;5032039;28;20366;-77
2022/08/14 09:29:14;;;;;;;;;;;;;;;30.60;37.64;98593.63;5032151;28;19941;-77
2022/08/14 09:31:47;;;;;;;;;;;;;;;30.84;37.67;98599.19;5030769;28;20480;-77
2022/08/14 09:34:16;;;;;;;;;;;;;;;31.05;37.36;98595.63;5032272;28;19909;-77
2022/08/14 09:36:48;;;;;;;;;;;;;;;31.29;36.83;98584.81;5063955;28;20022;-77
2022/08/14 09:39:39;;;;;;;;;;;;;;;31.44;36.28;98586.09;5063756;28;19913;-77
2022/08/14 09:42:23;;;;;;;;;;;;;;;31.09;36.42;98586.44;5031757;28;19913;-77
2022/08/14 09:45:11;;;;;;;;;;;;;;;31.17;36.46;98582.84;5030300;28;19916;-77
2022/08/14 09:47:45;;;;;;;;;;;;;;;31.43;35.76;98581.78;5031571;28;19983;-77
2022/08/14 09:50:16;;;;;;;;;;;;;;;31.47;35.76;98591.69;5031848;28;19971;-77
2022/08/14 09:52:50;;;;;;;;;;;;;;;31.51;35.68;98587.13;5031685;28;19917;-77
2022/08/14 09:55:17;;;;;;;;;;;;;;;31.70;35.13;98581.16;5062398;28;19917;-77
2022/08/14 09:57:44;;;;;;;;;;;;;;;31.78;35.32;98582.19;5031694;28;19908;-77
2022/08/14 10:00:11;;;;;;;;;;;;;;;32.04;35.09;98581.84;5063410;28;19909;-77
2022/08/14 10:02:36;;;;;;;;;;;;;;;32.04;34.48;98574.44;5030265;28;19946;-77
2022/08/14 10:05:10;;;;;;;;;;;;;;;32.03;35.12;98572.06;5031631;28;19913;-77
2022/08/14 10:07:49;;;;;;;;;;;;;;;32.07;35.00;98573.75;5031559;28;20337;-77
2022/08/14 10:10:26;;;;;;;;;;;;;;;31.89;35.04;98567.72;5035221;28;19996;-77
2022/08/14 10:12:52;;;;;;;;;;;;;;;31.77;35.71;98558.75;5067496;28;19966;-77
2022/08/14 10:15:18;;;;;;;;;;;;;;;32.01;35.47;98545.09;5035492;28;19905;-77
2022/08/14 10:17:45;;;;;;;;;;;;;;;32.07;35.43;98557.38;5035239;28;20362;-77
2022/08/14 10:20:12;;;;;;;;;;;;;;;32.01;35.56;98542.38;5035402;28;20412;-77
2022/08/14 10:22:38;;;;;;;;;;;;;;;31.86;35.67;98562.16;5035483;28;19991;-77
2022/08/14 10:25:13;;;;;;;;;;;;;;;31.82;35.69;98553.06;5033967;28;20445;-77
2022/08/14 10:27:39;;;;;;;;;;;;;;;31.67;35.60;98551.78;5035195;28;19908;-77
2022/08/14 10:30:11;;;;;;;;;;;;;;;31.52;36.11;98553.25;5035221;28;20302;-77
2022/08/14 10:32:47;;;;;;;;;;;;;;;31.59;36.01;98547.22;5035061;28;20321;-77
2022/08/14 10:35:13;;;;;;;;;;;;;;;31.60;35.79;98551.56;5035089;28;19913;-77
2022/08/14 10:37:39;;;;;;;;;;;;;;;31.51;35.94;98556.31;5067032;28;19916;-77
2022/08/14 10:40:04;;;;;;;;;;;;;;;31.37;35.76;98570.28;5034947;28;20385;-77
2022/08/14 10:42:34;;;;;;;;;;;;;;;31.46;35.92;98568.25;5035052;28;19916;-77
2022/08/14 10:44:59;;;;;;;;;;;;;;;31.46;35.25;98573.72;5034997;28;20010;-77
2022/08/14 10:47:32;;;;;;;;;;;;;;;31.25;35.52;98578.47;5033606;28;19968;-77
2022/08/14 10:49:59;;;;;;;;;;;;;;;30.95;35.44;98583.19;5034774;28;20402;-77
2022/08/14 10:52:28;;;;;;;;;;;;;;;30.60;35.21;98572.63;5034785;28;19909;-77
2022/08/14 10:55:06;;;;;;;;;;;;;;;30.36;35.52;98559.59;5035054;28;19952;-77
2022/08/14 10:57:34;;;;;;;;;;;;;;;30.12;36.47;98575.81;5066731;28;19909;-77
2022/08/14 11:00:00;;;;;;;;;;;;;;;29.84;36.36;98569.22;5034437;28;19909;-77
2022/08/14 11:02:28;;;;;;;;;;;;;;;29.71;36.11;98571.00;5034810;28;19908;-77
2022/08/14 11:05:06;;;;;;;;;;;;;;;29.52;36.55;98563.25;5034597;28;20080;-77
2022/08/14 11:07:32;;;;;;;;;;;;;;;29.35;36.58;98553.22;5034799;28;19948;-77
2022/08/14 11:09:59;;;;;;;;;;;;;;;29.03;36.87;98556.50;5034352;28;19959;-77
2022/08/14 11:12:25;;;;;;;;;;;;;;;28.83;37.32;98563.38;5034364;28;20374;-77
2022/08/14 11:14:55;;;;;;;;;;;;;;;28.63;37.81;98559.38;5034419;28;19949;-77
2022/08/14 11:17:21;;;;;;;;;;;;;;;28.38;38.79;98571.06;5034331;28;19916;-77
2022/08/14 11:19:46;;;;;;;;;;;;;;;28.21;38.95;98577.19;5034007;28;20317;-77
2022/08/14 11:22:14;;;;;;;;;;;;;;;28.02;39.79;98584.84;5034221;28;19956;-77
2022/08/14 11:24:42;;;;;;;;;;;;;;;27.95;40.59;98589.91;5034243;28;19909;-77
2022/08/14 11:27:08;;;;;;;;;;;;;;;27.95;40.35;98588.00;5034407;28;19941;-77
2022/08/14 11:29:35;;;;;;;;;;;;;;;27.83;41.60;98599.47;5034154;28;19951;-77
2022/08/14 11:32:01;;;;;;;;;;;;;;;27.82;40.82;98599.78;5032753;28;19909;-77
2022/08/14 11:34:26;;;;;;;;;;;;;;;27.73;41.92;98607.09;5033843;28;19975;-77
2022/08/14 11:36:51;;;;;;;;;;;;;;;27.56;41.94;98604.28;5033811;28;20366;-77
2022/08/14 11:39:18;;;;;;;;;;;;;;;27.49;41.40;98596.56;5033960;28;19909;-77
2022/08/14 11:41:45;;;;;;;;;;;;;;;27.37;42.06;98602.56;5033800;28;19913;-77
2022/08/14 11:44:10;;;;;;;;;;;;;;;27.28;42.12;98590.06;5033755;28;19913;-77
2022/08/14 11:46:35;;;;;;;;;;;;;;;27.24;43.29;98579.06;5033885;28;20344;-77
2022/08/14 11:49:01;;;;;;;;;;;;;;;27.29;42.64;98578.13;5033723;28;20390;-77
2022/08/14 11:51:27;;;;;;;;;;;;;;;27.19;43.56;98579.19;5033626;28;19911;-77
2022/08/14 11:53:56;;;;;;;;;;;;;;;27.13;43.49;98569.59;5033802;28;19916;-77
2022/08/14 11:56:21;;;;;;;;;;;;;;;27.08;43.45;98567.00;5065736;28;19923;-77
2022/08/14 11:58:53;;;;;;;;;;;;;;;27.04;43.21;98574.94;5065564;28;19987;-77
2022/08/14 12:01:27;;;;;;;;;;;;;;;26.99;43.17;98585.13;5033490;28;19948;-77
2022/08/14 12:03:55;;;;;;;;;;;;;;;27.03;43.41;98594.22;5033638;28;19975;-77
2022/08/14 12:06:21;;;;;;;;;;;;;;;27.05;43.75;98598.22;5033425;28;19943;-77
2022/08/14 12:08:47;;;;;;;;;;;;;;;27.17;43.25;98622.06;5065405;28;19909;-77
2022/08/14 12:11:13;;;;;;;;;;;;;;;27.07;43.38;98633.94;5033580;28;19913;-77
2022/08/14 12:13:39;;;;;;;;;;;;;;;27.04;44.02;98642.69;5032107;28;20386;-77
2022/08/14 12:16:06;;;;;;;;;;;;;;;27.11;43.54;98648.47;5033325;28;19916;-77
2022/08/14 12:18:34;;;;;;;;;;;;;;;26.98;44.62;98641.22;5033224;28;19944;-77
2022/08/14 12:21:19;;;;;;;;;;;;;;;26.91;44.05;98635.38;5031722;28;20401;-77
2022/08/14 12:23:46;;;;;;;;;;;;;;;26.67;45.39;98641.06;5031041;28;19915;-77
2022/08/14 12:26:19;;;;;;;;;;;;;;;26.57;45.29;98649.41;5032869;28;19909;-77
2022/08/14 12:28:47;;;;;;;;;;;;;;;26.60;46.58;98665.03;5033097;28;19912;-77
2022/08/14 12:31:18;;;;;;;;;;;;;;;26.48;47.38;98662.88;5032342;28;19913;-78
2022/08/14 12:33:56;;;;;;;;;;;;;;;26.35;47.36;98671.81;5032934;28;19909;-77
2022/08/14 12:36:22;;;;;;;;;;;;;;;26.16;48.76;98669.19;5032826;28;19909;-77
2022/08/14 12:38:49;;;;;;;;;;;;;;;26.04;49.36;98676.19;5032959;28;20310;-77
2022/08/14 12:41:16;;;;;;;;;;;;;;;26.01;46.79;98674.91;5033103;28;20361;-77
2022/08/14 12:43:53;;;;;;;;;;;;;;;25.92;48.14;98671.25;5032632;28;19920;-77
2022/08/14 12:46:32;;;;;;;;;;;;;;;25.70;50.01;98669.25;5032746;28;20357;-77
2022/08/14 12:48:58;;;;;;;;;;;;;;;25.63;49.09;98674.19;5032510;28;19909;-77
2022/08/14 12:51:25;;;;;;;;;;;;;;;25.53;48.93;98677.09;5032562;28;19916;-77
2022/08/14 12:53:54;;;;;;;;;;;;;;;25.43;49.34;98677.25;5032651;28;19909;-77
2022/08/14 12:56:20;;;;;;;;;;;;;;;25.46;50.58;98674.75;5032396;28;19995;-77
2022/08/14 12:58:49;;;;;;;;;;;;;;;25.35;49.59;98673.34;5032409;28;19962;-77
2022/08/14 13:01:19;;;;;;;;;;;;;;;25.28;50.13;98671.00;5031986;28;19912;-77
2022/08/14 13:03:44;;;;;;;;;;;;;;;25.31;50.00;98665.00;5032244;28;19909;-77